createdAt,value
2022-07-28T00:01:44.976Z,101293.91
2022-07-28T00:04:30.854Z,101298.25
2022-07-28T00:07:16.277Z,101297.28
2022-07-28T00:10:01.746Z,101291.84
2022-07-28T00:12:47.182Z,101299.72
2022-07-28T00:15:32.619Z,101303.94
2022-07-28T00:18:17.492Z,101297.88
2022-07-28T00:21:03.993Z,101291.69
2022-07-28T00:23:49.033Z,101283.78
2022-07-28T00:26:34.625Z,101275.09
2022-07-28T00:29:19.972Z,101272.47
2022-07-28T00:32:05.772Z,101261.19
2022-07-28T00:34:53.638Z,101278.69
2022-07-28T00:37:40.043Z,101274.50
2022-07-28T00:40:25.352Z,101275.19
2022-07-28T00:43:11.037Z,101273.38
2022-07-28T00:45:56.210Z,101282.75
2022-07-28T00:48:45.135Z,101291.50
2022-07-28T00:51:30.549Z,101283.53
2022-07-28T00:54:16.163Z,101273.19
2022-07-28T00:57:01.777Z,101287.00
2022-07-28T00:59:47.309Z,101281.66
2022-07-28T01:02:32.887Z,101284.25
2022-07-28T01:05:19.116Z,101289.44
2022-07-28T01:08:27.205Z,101279.00
2022-07-28T01:11:31.493Z,101277.38
2022-07-28T01:14:29.149Z,101277.41
2022-07-28T01:17:16.960Z,101279.97
2022-07-28T01:20:11.677Z,101280.63
2022-07-28T01:22:56.913Z,101284.75
2022-07-28T01:25:48.747Z,101304.56
2022-07-28T01:28:49.349Z,101301.88
2022-07-28T01:31:40.803Z,101295.84
2022-07-28T01:34:33.213Z,101292.19
2022-07-28T01:37:24.909Z,101284.16
2022-07-28T01:40:13.133Z,101291.84
2022-07-28T01:43:02.442Z,101304.84
2022-07-28T01:45:47.705Z,101298.75
2022-07-28T01:48:34.240Z,101285.59
2022-07-28T01:51:22.133Z,101276.84
2022-07-28T01:54:09.962Z,101281.34
2022-07-28T01:56:57.201Z,101272.59
2022-07-28T01:59:43.839Z,101269.13
2022-07-28T02:02:30.870Z,101282.00
2022-07-28T02:05:19.506Z,101273.47
2022-07-28T02:08:08.882Z,101278.88
2022-07-28T02:10:57.587Z,101269.34
2022-07-28T02:13:44.132Z,101264.88
2022-07-28T02:16:30.705Z,101274.50
2022-07-28T02:19:18.209Z,101267.53
2022-07-28T02:22:05.237Z,101265.06
2022-07-28T02:24:53.049Z,101278.00
2022-07-28T02:27:53.379Z,101276.38
2022-07-28T02:30:48.396Z,101267.75
2022-07-28T02:33:59.226Z,101276.44
2022-07-28T02:36:50.810Z,101267.75
2022-07-28T02:39:42.175Z,101265.00
2022-07-28T02:42:32.249Z,101268.44
2022-07-28T02:45:22.452Z,101281.16
2022-07-28T02:48:12.441Z,101269.19
2022-07-28T02:50:59.127Z,101259.09
2022-07-28T02:53:45.958Z,101263.56
2022-07-28T02:56:31.947Z,101249.75
2022-07-28T02:59:20.310Z,101257.41
2022-07-28T03:02:06.473Z,101265.06
2022-07-28T03:04:53.070Z,101265.88
2022-07-28T03:07:42.484Z,101260.44
2022-07-28T03:10:36.866Z,101262.16
2022-07-28T03:13:22.153Z,101267.22
2022-07-28T03:16:08.483Z,101273.13
2022-07-28T03:18:53.907Z,101276.31
2022-07-28T03:21:39.121Z,101279.56
2022-07-28T03:24:27.374Z,101282.88
2022-07-28T03:27:29.348Z,101280.47
2022-07-28T03:30:26.489Z,101276.84
2022-07-28T03:33:12.229Z,101270.81
2022-07-28T03:35:59.868Z,101264.81
2022-07-28T03:38:53.837Z,101276.00
2022-07-28T03:41:41.974Z,101275.09
2022-07-28T03:44:29.180Z,101268.06
2022-07-28T03:47:15.248Z,101286.25
2022-07-28T03:50:00.323Z,101277.50
2022-07-28T03:52:45.791Z,101292.06
2022-07-28T03:55:31.146Z,101290.31
2022-07-28T03:58:21.081Z,101285.84
2022-07-28T04:01:11.506Z,101285.81
2022-07-28T04:03:56.870Z,101297.78
2022-07-28T04:06:42.235Z,101300.56
2022-07-28T04:09:27.251Z,101298.13
2022-07-28T04:12:12.595Z,101283.50
2022-07-28T04:14:57.955Z,101275.81
2022-07-28T04:17:43.748Z,101273.41
2022-07-28T04:20:29.256Z,101272.31
2022-07-28T04:23:14.367Z,101275.94
2022-07-28T04:25:59.678Z,101271.72
2022-07-28T04:28:45.721Z,101279.75
2022-07-28T04:31:31.239Z,101272.91
2022-07-28T04:34:16.829Z,101278.25
2022-07-28T04:37:02.123Z,101279.13
2022-07-28T04:39:47.381Z,101272.22
2022-07-28T04:42:33.408Z,101272.25
2022-07-28T04:45:18.581Z,101275.72
2022-07-28T04:48:03.963Z,101287.78
2022-07-28T04:50:49.328Z,101278.38
2022-07-28T04:53:34.340Z,101285.41
2022-07-28T04:56:19.702Z,101277.56
2022-07-28T04:59:05.067Z,101282.75
2022-07-28T05:01:50.849Z,101284.44
2022-07-28T05:04:36.238Z,101288.88
2022-07-28T05:07:21.578Z,101289.94
2022-07-28T05:10:10.033Z,101291.94
2022-07-28T05:12:55.154Z,101286.91
2022-07-28T05:15:40.459Z,101286.31
2022-07-28T05:18:25.551Z,101271.84
2022-07-28T05:21:10.996Z,101272.91
2022-07-28T05:23:56.615Z,101261.72
2022-07-28T05:26:41.909Z,101259.25
2022-07-28T05:29:41.819Z,101252.53
2022-07-28T05:32:32.307Z,101247.56
2022-07-28T05:35:17.818Z,101239.03
2022-07-28T05:38:06.256Z,101246.13
2022-07-28T05:40:54.094Z,101239.34
2022-07-28T05:43:39.102Z,101236.03
2022-07-28T05:46:24.465Z,101236.25
2022-07-28T05:49:09.775Z,101237.28
2022-07-28T05:51:55.008Z,101207.91
2022-07-28T05:54:40.446Z,101221.03
2022-07-28T05:57:25.430Z,101203.81
2022-07-28T06:00:14.595Z,101198.69
2022-07-28T06:03:01.039Z,101182.22
2022-07-28T06:06:15.307Z,101180.50
2022-07-28T06:08:51.250Z,101202.34
2022-07-28T06:11:36.556Z,101200.66
2022-07-28T06:14:21.529Z,101192.00
2022-07-28T06:17:06.883Z,101192.06
2022-07-28T06:19:52.160Z,101172.13
2022-07-28T06:22:42.296Z,101177.38
2022-07-28T06:25:29.514Z,101170.44
2022-07-28T06:28:14.709Z,101185.28
2022-07-28T06:31:00.160Z,101190.59
2022-07-28T06:33:45.485Z,101183.72
2022-07-28T06:36:30.447Z,101208.13
2022-07-28T06:39:15.781Z,101196.00
2022-07-28T06:42:01.171Z,101159.53
2022-07-28T06:44:58.331Z,101181.34
2022-07-28T06:47:45.977Z,101158.75
2022-07-28T06:50:33.592Z,101152.72
2022-07-28T06:53:18.669Z,101150.97
2022-07-28T06:56:05.591Z,101160.59
2022-07-28T06:58:51.363Z,101158.88
2022-07-28T07:01:36.670Z,101135.34
2022-07-28T07:04:21.639Z,101153.63
2022-07-28T07:07:14.897Z,101134.50
2022-07-28T07:10:02.644Z,101138.81
2022-07-28T07:12:47.685Z,101151.03
2022-07-28T07:15:34.880Z,101139.69
2022-07-28T07:18:20.343Z,101144.00
2022-07-28T07:21:05.753Z,101138.69
2022-07-28T07:23:51.333Z,101129.00
2022-07-28T07:26:37.961Z,101122.91
2022-07-28T07:29:23.291Z,101162.81
2022-07-28T07:32:10.751Z,101118.03
2022-07-28T07:34:56.221Z,101085.41
2022-07-28T07:37:41.448Z,101050.13
2022-07-28T07:40:26.551Z,101061.16
2022-07-28T07:43:11.913Z,101066.78
2022-07-28T07:45:57.463Z,101069.16
2022-07-28T07:48:43.245Z,101071.69
2022-07-28T07:51:28.460Z,101053.75
2022-07-28T07:54:14.043Z,101069.22
2022-07-28T07:56:59.645Z,101027.81
2022-07-28T07:59:45.126Z,101027.38
2022-07-28T08:02:30.671Z,101060.16
2022-07-28T08:05:16.234Z,101039.09
2022-07-28T08:08:06.685Z,101037.91
2022-07-28T08:10:52.208Z,101069.44
2022-07-28T08:13:37.022Z,101047.97
2022-07-28T08:16:22.501Z,101050.84
2022-07-28T08:19:07.867Z,101028.09
2022-07-28T08:21:54.239Z,101050.84
2022-07-28T08:24:39.764Z,101028.41
2022-07-28T08:27:25.165Z,101070.66
2022-07-28T08:30:12.046Z,101030.78
2022-07-28T08:32:57.434Z,101036.25
2022-07-28T08:35:42.718Z,101025.03
2022-07-28T08:38:28.127Z,101059.88
2022-07-28T08:41:22.591Z,101025.22
2022-07-28T08:44:10.476Z,101022.28
2022-07-28T08:46:56.197Z,101042.38
2022-07-28T08:49:42.489Z,101053.41
2022-07-28T08:52:33.063Z,101036.50
2022-07-28T08:55:31.560Z,101039.38
2022-07-28T08:58:17.778Z,101061.03
2022-07-28T09:01:04.994Z,101002.56
2022-07-28T09:03:51.834Z,101023.78
2022-07-28T09:06:37.735Z,101050.34
2022-07-28T09:09:23.442Z,101036.13
2022-07-28T09:12:08.906Z,101048.25
2022-07-28T09:14:54.411Z,101056.31
2022-07-28T09:17:41.233Z,101060.59
2022-07-28T09:20:28.199Z,101040.13
2022-07-28T09:23:43.004Z,101050.97
2022-07-28T09:26:18.724Z,101060.22
2022-07-28T09:29:03.735Z,101049.47
2022-07-28T09:31:56.965Z,101048.88
2022-07-28T09:34:48.141Z,101032.31
2022-07-28T09:37:36.729Z,101036.00
2022-07-28T09:40:22.534Z,101058.50
2022-07-28T09:43:09.261Z,101055.44
2022-07-28T09:46:10.341Z,101010.53
2022-07-28T09:48:58.517Z,101035.91
2022-07-28T09:51:59.545Z,101042.97
2022-07-28T09:55:05.258Z,101061.34
2022-07-28T09:57:50.741Z,101065.81
2022-07-28T10:00:36.903Z,101017.69
2022-07-28T10:03:26.514Z,101053.19
2022-07-28T10:06:16.840Z,101050.78
2022-07-28T10:09:04.242Z,101027.84
2022-07-28T10:11:49.521Z,100978.34
2022-07-28T10:14:34.939Z,101009.78
2022-07-28T10:25:06.696Z,100986.41
2022-07-28T10:27:52.943Z,101015.28
2022-07-28T10:30:40.252Z,100984.69
2022-07-28T10:33:30.166Z,100999.97
2022-07-28T10:36:18.082Z,100982.72
2022-07-28T10:39:15.846Z,101019.44
2022-07-28T10:42:02.841Z,101021.22
2022-07-28T10:44:48.350Z,100978.25
2022-07-28T10:47:36.496Z,100999.22
2022-07-28T10:50:23.257Z,100995.69
2022-07-28T10:53:11.554Z,100976.94
2022-07-28T10:56:03.214Z,100997.78
2022-07-28T11:14:24.536Z,100990.09
2022-07-28T11:17:10.380Z,101003.09
2022-07-28T11:23:54.203Z,100975.78
2022-07-28T11:33:57.460Z,100984.25
2022-07-28T11:36:58.404Z,100980.53
2022-07-28T11:39:44.228Z,100983.53
2022-07-28T11:46:01.454Z,100937.56
2022-07-28T11:48:46.607Z,100957.66
2022-07-28T11:51:36.197Z,100959.50
2022-07-28T11:54:37.677Z,100966.28
2022-07-28T11:57:23.671Z,100938.66
2022-07-28T12:00:09.054Z,100976.09
2022-07-28T12:02:55.779Z,100905.44
2022-07-28T12:05:41.876Z,100924.56
2022-07-28T12:08:28.894Z,100953.50
2022-07-28T12:11:13.984Z,100944.25
2022-07-28T12:14:08.522Z,100930.38
2022-07-28T12:16:54.241Z,100955.53
2022-07-28T12:19:39.348Z,100925.13
2022-07-28T12:22:56.495Z,100924.34
2022-07-28T12:25:45.874Z,100925.41
2022-07-28T12:28:32.597Z,100902.38
2022-07-28T12:31:17.564Z,100887.81
2022-07-28T12:34:07.679Z,100913.84
2022-07-28T12:36:55.098Z,100913.25
2022-07-28T12:39:40.215Z,100933.97
2022-07-28T12:42:31.211Z,100888.06
2022-07-28T12:45:16.549Z,100890.06
2022-07-28T12:48:08.322Z,100904.31
2022-07-28T12:50:53.745Z,100888.66
2022-07-28T12:53:50.957Z,100891.78
2022-07-28T12:56:50.439Z,100886.88
2022-07-28T12:59:36.561Z,100904.34
2022-07-28T13:02:35.403Z,100897.16
2022-07-28T13:05:39.169Z,100912.66
2022-07-28T13:08:27.666Z,100894.53
2022-07-28T13:11:42.502Z,100928.19
2022-07-28T13:14:41.181Z,100877.59
2022-07-28T13:17:47.864Z,100879.94
2022-07-28T13:20:47.720Z,100878.09
2022-07-28T13:23:33.165Z,100890.44
2022-07-28T13:26:18.362Z,100830.28
2022-07-28T13:29:12.532Z,100814.19
2022-07-28T13:31:57.908Z,100879.41
2022-07-28T13:34:43.255Z,100857.66
2022-07-28T13:37:28.713Z,100862.88
2022-07-28T13:40:13.877Z,100847.22
2022-07-28T13:42:59.300Z,100842.78
2022-07-28T13:45:44.711Z,100839.88
2022-07-28T13:48:30.044Z,100857.31
2022-07-28T13:51:15.399Z,100845.31
2022-07-28T13:54:00.858Z,100841.38
2022-07-28T13:57:05.431Z,100867.06
2022-07-28T13:59:51.080Z,100852.13
2022-07-28T14:02:39.152Z,100875.53
2022-07-28T14:05:32.352Z,100842.19
2022-07-28T14:08:19.534Z,100832.63
2022-07-28T14:11:05.259Z,100859.22
2022-07-28T14:13:52.913Z,100843.44
2022-07-28T14:16:38.532Z,100849.16
2022-07-28T14:19:38.693Z,100850.22
2022-07-28T14:22:24.279Z,100856.31
2022-07-28T14:25:10.348Z,100869.63
2022-07-28T14:27:55.367Z,100877.53
2022-07-28T14:30:40.843Z,100864.53
2022-07-28T14:33:26.154Z,100864.44
2022-07-28T14:36:11.651Z,100865.66
2022-07-28T14:38:57.384Z,100903.16
2022-07-28T14:41:42.584Z,100878.31
2022-07-28T14:44:28.205Z,100873.97
2022-07-28T14:47:14.645Z,100870.88
2022-07-28T14:50:00.768Z,100884.19
2022-07-28T14:52:45.939Z,100868.97
2022-07-28T14:55:31.649Z,100895.44
2022-07-28T14:58:16.823Z,100881.72
2022-07-28T15:01:02.216Z,100883.00
2022-07-28T15:03:47.681Z,100887.16
2022-07-28T15:06:33.067Z,100865.66
2022-07-28T15:09:18.661Z,100854.25
2022-07-28T15:12:04.393Z,100872.34
2022-07-28T15:14:49.606Z,100868.97
2022-07-28T15:17:34.895Z,100871.38
2022-07-28T15:20:20.249Z,100874.03
2022-07-28T15:23:06.814Z,100844.97
2022-07-28T15:25:52.161Z,100851.66
2022-07-28T15:28:38.366Z,100864.63
2022-07-28T15:31:24.497Z,100860.88
2022-07-28T15:34:11.376Z,100836.88
2022-07-28T15:36:56.715Z,100848.13
2022-07-28T15:39:45.212Z,100838.72
2022-07-28T15:42:30.836Z,100854.09
2022-07-28T15:45:16.472Z,100829.53
2022-07-28T15:48:01.712Z,100845.16
2022-07-28T15:50:46.880Z,100838.66
2022-07-28T15:53:32.609Z,100840.91
2022-07-28T15:56:18.721Z,100833.22
2022-07-28T15:59:06.313Z,100826.88
2022-07-28T16:01:51.415Z,100824.13
2022-07-28T16:04:36.783Z,100838.94
2022-07-28T16:07:36.183Z,100852.34
2022-07-28T16:10:21.429Z,100805.28
2022-07-28T16:13:06.213Z,100821.63
2022-07-28T16:15:51.555Z,100817.41
2022-07-28T16:18:38.561Z,100804.47
2022-07-28T16:21:23.987Z,100832.88
2022-07-28T16:24:09.151Z,100798.09
2022-07-28T16:26:54.141Z,100807.97
2022-07-28T16:29:39.489Z,100813.25
2022-07-28T16:32:24.955Z,100821.72
2022-07-28T16:35:10.392Z,100825.16
2022-07-28T16:37:55.650Z,100833.41
2022-07-28T16:40:40.945Z,100823.16
2022-07-28T16:43:26.300Z,100815.13
2022-07-28T16:46:11.834Z,100805.78
2022-07-28T16:48:57.776Z,100796.50
2022-07-28T16:51:42.858Z,100809.91
2022-07-28T16:54:28.023Z,100809.72
2022-07-28T16:57:13.079Z,100830.56
2022-07-28T16:59:58.528Z,100812.00
2022-07-28T17:02:44.269Z,100818.06
2022-07-28T17:05:29.411Z,100818.88
2022-07-28T17:08:14.561Z,100823.41
2022-07-28T17:10:59.774Z,100828.47
2022-07-28T17:13:45.547Z,100822.97
2022-07-28T17:16:31.183Z,100842.88
2022-07-28T17:19:16.516Z,100828.66
2022-07-28T17:22:02.012Z,100862.88
2022-07-28T17:24:47.411Z,100832.44
2022-07-28T17:27:37.931Z,100806.00
2022-07-28T17:30:23.743Z,100820.56
2022-07-28T17:33:09.174Z,100798.13
2022-07-28T17:35:55.223Z,100791.78
2022-07-28T17:38:40.402Z,100809.47
2022-07-28T17:41:25.734Z,100812.53
2022-07-28T17:44:10.633Z,100813.69
2022-07-28T17:46:56.060Z,100818.81
2022-07-28T17:49:45.360Z,100821.34
2022-07-28T17:52:31.052Z,100822.22
2022-07-28T17:55:16.347Z,100812.69
2022-07-28T17:58:25.581Z,100823.16
2022-07-28T18:01:14.099Z,100827.72
2022-07-28T18:04:01.058Z,100824.34
2022-07-28T18:06:46.426Z,100814.97
2022-07-28T18:09:31.325Z,100802.31
2022-07-28T18:12:16.705Z,100806.97
2022-07-28T18:15:02.133Z,100817.47
2022-07-28T18:17:55.290Z,100815.69
2022-07-28T18:20:41.495Z,100817.63
2022-07-28T18:23:26.769Z,100820.44
2022-07-28T18:26:12.290Z,100824.16
2022-07-28T18:28:57.859Z,100826.09
2022-07-28T18:31:46.389Z,100826.84
2022-07-28T18:34:32.161Z,100829.59
2022-07-28T18:37:17.049Z,100828.84
2022-07-28T18:40:02.939Z,100817.69
2022-07-28T18:42:48.733Z,100816.00
2022-07-28T18:45:34.540Z,100836.31
2022-07-28T18:48:19.922Z,100823.38
2022-07-28T18:51:05.321Z,100823.28
2022-07-28T18:53:50.802Z,100826.13
2022-07-28T18:56:35.914Z,100831.47
2022-07-28T18:59:21.189Z,100834.38
2022-07-28T19:02:06.692Z,100830.94
2022-07-28T19:04:51.972Z,100825.00
2022-07-28T19:07:37.431Z,100835.88
2022-07-28T19:10:22.403Z,100828.03
2022-07-28T19:13:09.266Z,100831.84
2022-07-28T19:15:58.236Z,100831.22
2022-07-28T19:18:43.561Z,100835.47
2022-07-28T19:21:28.466Z,100844.41
2022-07-28T19:24:15.609Z,100846.84
2022-07-28T19:27:03.044Z,100833.84
2022-07-28T19:29:48.163Z,100846.41
2022-07-28T19:32:34.343Z,100865.16
2022-07-28T19:35:19.250Z,100857.16
2022-07-28T19:38:04.662Z,100876.53
2022-07-28T19:40:49.658Z,100867.03
2022-07-28T19:43:35.852Z,100866.59
2022-07-28T19:46:21.020Z,100871.06
2022-07-28T19:49:06.558Z,100855.59
2022-07-28T19:51:51.602Z,100852.28
2022-07-28T19:54:37.125Z,100855.94
2022-07-28T19:57:22.503Z,100858.03
2022-07-28T20:00:08.601Z,100867.69
2022-07-28T20:02:53.763Z,100877.38
2022-07-28T20:05:39.625Z,100873.88
2022-07-28T20:08:25.060Z,100869.66
2022-07-28T20:11:10.265Z,100870.59
2022-07-28T20:13:55.670Z,100874.16
2022-07-28T20:16:41.225Z,100865.53
2022-07-28T20:19:26.362Z,100877.06
2022-07-28T20:22:11.761Z,100887.03
2022-07-28T20:24:57.250Z,100876.59
2022-07-28T20:27:43.256Z,100874.78
2022-07-28T20:30:28.700Z,100864.59
2022-07-28T20:33:14.017Z,100881.25
2022-07-28T20:35:59.196Z,100870.00
2022-07-28T20:38:44.744Z,100872.97
2022-07-28T20:41:30.013Z,100880.06
2022-07-28T20:44:28.304Z,100893.16
2022-07-28T20:47:14.514Z,100887.81
2022-07-28T20:50:00.794Z,100895.63
2022-07-28T20:52:46.417Z,100899.41
2022-07-28T20:55:31.545Z,100895.78
2022-07-28T20:58:16.941Z,100896.78
2022-07-28T21:01:03.605Z,100903.69
2022-07-28T21:03:49.720Z,100913.34
2022-07-28T21:06:35.210Z,100924.72
2022-07-28T21:09:23.249Z,100929.13
2022-07-28T21:12:08.761Z,100915.88
2022-07-28T21:14:53.807Z,100902.00
2022-07-28T21:17:39.097Z,100920.47
2022-07-28T21:20:24.882Z,100920.28
2022-07-28T21:23:10.202Z,100921.94
2022-07-28T21:25:55.706Z,100934.16
2022-07-28T21:28:41.107Z,100913.41
2022-07-28T21:31:26.285Z,100925.66
2022-07-28T21:34:11.990Z,100937.88
2022-07-28T21:36:57.103Z,100928.28
2022-07-28T21:39:42.336Z,100949.47
2022-07-28T21:42:27.215Z,100929.31
2022-07-28T21:45:12.145Z,100928.56
2022-07-28T21:47:57.643Z,100929.50
2022-07-28T21:50:42.840Z,100930.53
2022-07-28T21:53:28.172Z,100937.47
2022-07-28T21:56:13.955Z,100934.00
2022-07-28T21:58:58.808Z,100948.06
2022-07-28T22:01:47.080Z,100950.03
2022-07-28T22:04:32.055Z,100963.94
2022-07-28T22:07:17.414Z,100942.94
2022-07-28T22:10:02.318Z,100946.47
2022-07-28T22:12:47.639Z,100936.00
2022-07-28T22:15:33.028Z,100945.72
2022-07-28T22:18:18.249Z,100937.97
2022-07-28T22:21:05.159Z,100947.81
2022-07-28T22:23:50.180Z,100954.94
2022-07-28T22:26:34.929Z,100956.59
2022-07-28T22:29:19.876Z,100958.38
2022-07-28T22:32:05.474Z,100952.25
2022-07-28T22:34:50.536Z,100957.59
2022-07-28T22:37:36.134Z,100956.78
2022-07-28T22:40:21.349Z,100960.38
2022-07-28T22:43:06.361Z,100972.81
2022-07-28T22:45:51.809Z,100968.53
2022-07-28T22:48:37.025Z,100965.09
2022-07-28T22:51:22.217Z,100970.41
2022-07-28T22:54:07.994Z,100961.56
2022-07-28T22:56:53.080Z,100972.00
2022-07-28T22:59:40.016Z,100972.91
2022-07-28T23:02:25.456Z,100966.81
2022-07-28T23:05:10.472Z,100971.22
2022-07-28T23:07:57.571Z,100974.78
2022-07-28T23:10:43.838Z,100975.69
2022-07-28T23:13:29.134Z,100961.63
2022-07-28T23:16:14.838Z,100964.31
2022-07-28T23:18:59.853Z,100979.41
2022-07-28T23:21:45.388Z,100970.50
2022-07-28T23:24:30.694Z,100972.19
2022-07-28T23:27:15.829Z,100973.91
2022-07-28T23:30:01.872Z,100984.41
2022-07-28T23:32:47.184Z,100964.25
2022-07-28T23:35:33.211Z,100970.34
2022-07-28T23:38:18.709Z,100970.44
2022-07-28T23:41:10.317Z,100973.06
2022-07-28T23:43:55.799Z,100957.31
2022-07-28T23:46:41.348Z,100980.03
2022-07-28T23:49:26.600Z,100959.91
2022-07-28T23:52:12.115Z,100951.13
2022-07-28T23:54:57.476Z,100952.94
2022-07-28T23:57:42.996Z,100941.66
